Time;durP1;ratioP1;P1;durP2;ratioP2;P2;SDS_P1;SDS_P2;PMS_P1;PMS_P2;Temp;Humidity;BMP_temperature;BMP_pressure;BME280_temperature;BME280_humidity;BME280_pressure;Samples;Min_cycle;Max_cycle;Signal;HPM_P1;HPM_P2
2022/04/28 00:00:13;;;;;;;3.95;2.95;;;10.80;99.90;;;;;;5075838;28;20048;-69
2022/04/28 00:02:39;;;;;;;5.75;3.45;;;10.50;99.90;;;;;;5075496;28;20533;-67
2022/04/28 00:05:07;;;;;;;5.47;4.00;;;10.40;99.90;;;;;;5072844;28;20048;-68
2022/04/28 00:07:33;;;;;;;5.22;3.72;;;10.40;99.90;;;;;;5074590;28;20052;-68
2022/04/28 00:09:59;;;;;;;3.65;3.17;;;10.50;99.90;;;;;;5074463;28;20082;-68
2022/04/28 00:12:25;;;;;;;4.43;3.42;;;10.50;99.90;;;;;;5075336;28;20075;-67
2022/04/28 00:14:51;;;;;;;4.90;3.95;;;10.50;99.90;;;;;;5075603;28;20133;-67
2022/04/28 00:17:17;;;;;;;9.15;4.00;;;10.60;99.90;;;;;;5075577;28;20536;-68
2022/04/28 00:19:43;;;;;;;4.03;3.30;;;10.60;99.90;;;;;;5075623;28;20094;-67
2022/04/28 00:22:09;;;;;;;5.47;3.33;;;10.50;99.90;;;;;;5075407;28;20040;-67
2022/04/28 00:24:34;;;;;;;5.75;3.13;;;10.50;99.90;;;;;;5075246;28;20043;-68
2022/04/28 00:27:00;;;;;;;8.43;3.47;;;10.50;99.90;;;;;;5070613;28;20041;-68
2022/04/28 00:29:26;;;;;;;4.43;3.10;;;10.60;99.90;;;;;;5055450;28;20043;-67
2022/04/28 00:31:52;;;;;;;4.28;3.70;;;10.50;99.90;;;;;;5055262;28;20071;-68
2022/04/28 00:34:18;;;;;;;3.55;3.20;;;10.60;99.90;;;;;;5055293;28;20045;-68
2022/04/28 00:36:43;;;;;;;3.97;3.50;;;10.50;99.90;;;;;;5054894;28;20044;-67
2022/04/28 00:39:09;;;;;;;7.82;4.25;;;10.30;99.90;;;;;;5054430;28;20045;-67
2022/04/28 00:41:35;;;;;;;5.40;4.60;;;10.50;99.90;;;;;;5054852;28;20044;-67
2022/04/28 00:50:38;;;;;;;6.07;5.03;;;10.50;99.90;;;;;;5055071;28;20040;-67
2022/04/28 00:52:56;;;;;;;5.97;4.50;;;10.30;99.90;;;;;;5054956;28;20396;-67
2022/04/28 00:55:23;;;;;;;6.82;4.50;;;10.30;99.90;;;;;;5054951;28;20127;-68
2022/04/28 00:57:50;;;;;;;11.00;4.30;;;10.10;99.90;;;;;;5054934;28;20078;-67
2022/04/28 01:00:17;;;;;;;8.73;3.83;;;10.10;99.90;;;;;;5054923;28;20044;-67
2022/04/28 01:02:43;;;;;;;6.25;4.32;;;9.90;99.90;;;;;;5054739;28;20037;-68
2022/04/28 01:05:10;;;;;;;7.85;4.60;;;9.70;99.90;;;;;;5054460;28;20032;-67
2022/04/28 01:07:36;;;;;;;9.07;4.28;;;9.60;99.90;;;;;;5054693;28;20489;-68
2022/04/28 01:10:04;;;;;;;5.65;4.18;;;9.50;99.90;;;;;;5054591;28;20033;-67
2022/04/28 01:12:30;;;;;;;6.15;4.53;;;9.60;99.90;;;;;;5060328;28;20054;-67
2022/04/28 01:14:56;;;;;;;5.50;4.13;;;9.60;99.90;;;;;;5074694;28;20036;-67
2022/04/28 01:17:22;;;;;;;6.53;4.38;;;9.80;99.90;;;;;;5074454;28;20560;-68
2022/04/28 01:19:48;;;;;;;5.97;4.25;;;9.90;99.90;;;;;;5074401;28;20029;-67
2022/04/28 01:22:13;;;;;;;6.32;4.68;;;9.90;99.90;;;;;;5074480;28;20044;-67
2022/04/28 01:24:39;;;;;;;5.75;4.18;;;9.90;99.90;;;;;;5074342;28;20054;-67
2022/04/28 01:27:07;;;;;;;6.35;4.50;;;10.20;99.90;;;;;;5074329;28;20044;-68
2022/04/28 01:29:34;;;;;;;7.53;4.88;;;10.20;99.90;;;;;;5074228;28;20055;-67
2022/04/28 01:32:00;;;;;;;6.30;4.53;;;10.30;99.90;;;;;;5074158;28;20169;-67
2022/04/28 01:34:26;;;;;;;5.60;4.55;;;10.40;99.90;;;;;;5074257;28;20040;-67
2022/04/28 01:36:52;;;;;;;7.43;4.18;;;10.50;99.90;;;;;;5073941;28;20679;-67
2022/04/28 01:39:18;;;;;;;5.40;4.30;;;10.20;99.90;;;;;;5073948;28;20044;-67
2022/04/28 01:41:44;;;;;;;5.47;4.75;;;10.30;99.90;;;;;;5070183;28;20060;-67
2022/04/28 01:44:10;;;;;;;7.45;5.25;;;10.40;99.90;;;;;;5073865;28;20546;-67
2022/04/28 01:46:36;;;;;;;5.82;4.68;;;10.40;99.90;;;;;;5073873;28;20407;-67
2022/04/28 01:49:02;;;;;;;5.85;4.78;;;10.30;99.90;;;;;;5073892;28;20572;-67
2022/04/28 01:56:57;;;;;;;6.70;4.85;;;10.30;99.90;;;;;;5073696;28;20135;-68
2022/04/28 01:59:22;;;;;;;7.07;5.25;;;10.50;99.90;;;;;;5073658;28;20551;-67
2022/04/28 02:01:48;;;;;;;6.63;4.47;;;10.40;99.90;;;;;;5073761;28;20079;-67
2022/04/28 02:04:14;;;;;;;6.90;4.85;;;10.40;99.90;;;;;;5066399;28;20409;-67
2022/04/28 02:06:42;;;;;;;6.00;4.78;;;10.20;99.90;;;;;;5053623;28;20455;-67
2022/04/28 02:09:09;;;;;;;5.68;4.88;;;10.40;99.90;;;;;;5053665;28;20143;-67
2022/04/28 02:11:34;;;;;;;6.88;4.72;;;10.40;99.90;;;;;;5053368;28;20045;-68
2022/04/28 02:14:00;;;;;;;6.72;4.65;;;10.10;99.90;;;;;;5053458;28;20049;-68
2022/04/28 02:16:26;;;;;;;6.93;4.80;;;9.60;99.90;;;;;;5053374;28;20539;-68
2022/04/28 02:18:52;;;;;;;6.57;4.82;;;9.60;99.90;;;;;;5053543;28;20037;-68
2022/04/28 02:21:18;;;;;;;6.47;5.22;;;9.50;99.90;;;;;;5053445;28;20508;-68
2022/04/28 02:23:44;;;;;;;6.32;5.00;;;9.70;99.90;;;;;;5035422;28;20044;-68
2022/04/28 02:26:10;;;;;;;5.82;4.65;;;;;;;;;;5053204;28;20064;-68
2022/04/28 02:28:36;;;;;;;7.28;4.80;;;9.40;99.90;;;;;;5053285;28;20044;-67
2022/04/28 02:31:02;;;;;;;6.55;4.88;;;9.50;99.90;;;;;;5053356;28;20033;-67
2022/04/28 02:33:27;;;;;;;8.07;4.85;;;9.40;99.90;;;;;;5053219;28;20432;-67
2022/04/28 02:35:53;;;;;;;6.07;5.00;;;9.40;99.90;;;;;;5053040;28;20041;-67
2022/04/28 02:38:19;;;;;;;8.23;5.40;;;9.50;99.90;;;;;;5053144;28;20395;-67
2022/04/28 02:40:45;;;;;;;5.65;4.25;;;9.40;99.90;;;;;;5052895;28;20050;-67
2022/04/28 02:43:11;;;;;;;8.88;5.93;;;9.40;99.90;;;;;;5052775;28;20124;-68
2022/04/28 02:45:36;;;;;;;21.70;10.20;;;9.30;99.90;;;;;;5052678;28;20463;-67
2022/04/28 02:48:02;;;;;;;10.18;6.50;;;9.50;99.90;;;;;;5052843;28;20033;-68
2022/04/28 02:50:28;;;;;;;11.90;5.40;;;9.80;99.90;;;;;;5052828;28;20489;-67
2022/04/28 02:52:54;;;;;;;7.25;5.47;;;9.90;99.90;;;;;;5052986;28;20047;-67
2022/04/28 02:55:20;;;;;;;9.15;4.97;;;10.00;99.90;;;;;;5052975;28;20049;-67
2022/04/28 02:57:46;;;;;;;6.28;5.13;;;10.00;99.90;;;;;;5052890;28;20048;-67
2022/04/28 03:00:12;;;;;;;7.65;5.32;;;9.90;99.90;;;;;;5053601;28;20029;-67
2022/04/28 03:02:38;;;;;;;6.82;5.15;;;9.70;99.90;;;;;;5059104;28;20043;-67
2022/04/28 03:05:04;;;;;;;9.00;4.80;;;9.70;99.90;;;;;;5059191;28;20045;-67
2022/04/28 03:10:58;;;;;;;7.00;5.15;;;9.50;99.90;;;;;;5059311;28;20040;-68
2022/04/28 03:13:04;;;;;;;7.97;5.63;;;9.30;99.90;;;;;;5051023;28;20476;-67
2022/04/28 03:15:30;;;;;;;6.25;4.85;;;9.30;99.90;;;;;;5059485;28;20061;-67
2022/04/28 03:17:56;;;;;;;5.90;5.20;;;9.30;99.90;;;;;;5059339;28;20123;-67
2022/04/28 03:20:22;;;;;;;8.18;5.53;;;9.20;99.90;;;;;;5059404;28;20045;-67
2022/04/28 03:22:48;;;;;;;7.93;5.07;;;9.50;99.90;;;;;;5059279;28;20048;-67
2022/04/28 03:25:14;;;;;;;7.35;4.80;;;9.50;99.90;;;;;;5059027;28;20047;-67
2022/04/28 03:27:40;;;;;;;6.28;5.05;;;9.50;99.90;;;;;;5059381;28;20052;-67
2022/04/28 03:30:08;;;;;;;6.50;4.80;;;9.50;99.90;;;;;;5059446;28;20037;-67
2022/04/28 03:32:34;;;;;;;7.68;4.93;;;9.50;99.90;;;;;;5059042;28;20072;-67
2022/04/28 03:34:59;;;;;;;8.05;4.57;;;9.60;99.90;;;;;;5059038;28;20126;-67
2022/04/28 03:37:25;;;;;;;6.95;5.68;;;9.60;99.90;;;;;;5059265;28;20025;-67
2022/04/28 03:39:51;;;;;;;9.15;5.53;;;9.70;99.90;;;;;;5059265;28;20045;-67
2022/04/28 03:42:20;;;;;;;6.40;5.15;;;9.60;99.90;;;;;;5059269;28;20068;-67
2022/04/28 03:44:46;;;;;;;8.50;5.22;;;9.60;99.90;;;;;;5058947;28;20080;-67
2022/04/28 03:47:11;;;;;;;5.57;4.68;;;9.40;99.90;;;;;;5059030;28;20076;-67
2022/04/28 03:49:37;;;;;;;6.63;4.60;;;9.10;99.90;;;;;;5059042;28;20045;-67
2022/04/28 03:52:04;;;;;;;8.45;5.40;;;9.00;99.90;;;;;;5058945;28;20033;-67
2022/04/28 03:54:29;;;;;;;6.25;4.90;;;9.00;99.90;;;;;;5059045;28;20116;-67
2022/04/28 03:56:57;;;;;;;7.22;4.90;;;8.80;99.90;;;;;;5058928;28;20060;-67
2022/04/28 03:59:23;;;;;;;6.72;4.93;;;8.50;99.90;;;;;;5059118;28;20041;-67
2022/04/28 04:01:50;;;;;;;7.68;4.75;;;8.40;99.90;;;;;;5059071;28;20374;-67
2022/04/28 04:04:17;;;;;;;6.90;5.05;;;8.50;99.90;;;;;;5058775;28;20116;-67
2022/04/28 04:06:42;;;;;;;6.50;5.05;;;8.60;99.90;;;;;;5058788;28;20139;-67
2022/04/28 04:09:08;;;;;;;7.43;5.50;;;8.80;99.90;;;;;;5058938;28;20104;-67
2022/04/28 04:11:34;;;;;;;7.10;5.68;;;8.90;99.90;;;;;;5058194;28;20090;-67
2022/04/28 04:14:00;;;;;;;7.30;5.63;;;9.00;99.90;;;;;;5054615;28;20086;-67
2022/04/28 04:16:26;;;;;;;6.85;5.45;;;9.10;99.90;;;;;;5055360;28;20047;-67
2022/04/28 04:18:52;;;;;;;6.15;4.75;;;9.10;99.90;;;;;;5055644;28;20029;-67
2022/04/28 04:21:19;;;;;;;7.05;5.05;;;9.30;99.90;;;;;;5055730;28;20044;-67
2022/04/28 04:23:44;;;;;;;7.90;5.38;;;9.30;99.90;;;;;;5055465;28;20485;-67
2022/04/28 04:26:10;;;;;;;6.95;5.13;;;9.40;99.90;;;;;;5055528;28;20048;-67
2022/04/28 04:28:36;;;;;;;7.22;5.78;;;9.10;99.90;;;;;;5055548;28;20044;-67
2022/04/28 04:33:46;;;;;;;7.20;5.50;;;9.10;99.90;;;;;;5069738;28;20083;-67
2022/04/28 04:36:12;;;;;;;6.70;5.15;;;9.20;99.90;;;;;;5055367;28;20071;-67
2022/04/28 04:38:38;;;;;;;12.15;5.38;;;9.30;99.90;;;;;;5055530;28;20712;-67
2022/04/28 04:41:05;;;;;;;8.57;5.50;;;9.30;99.90;;;;;;5055075;28;20072;-67
2022/04/28 04:43:31;;;;;;;7.60;5.85;;;9.40;99.90;;;;;;5055163;28;20443;-67
2022/04/28 04:45:57;;;;;;;9.98;5.85;;;9.40;99.90;;;;;;5054691;28;20049;-67
2022/04/28 04:48:24;;;;;;;6.50;5.07;;;9.50;99.90;;;;;;5054955;28;20040;-67
2022/04/28 04:50:52;;;;;;;8.98;5.78;;;9.50;99.90;;;;;;5055263;28;20065;-67
2022/04/28 04:53:18;;;;;;;8.23;5.72;;;9.50;99.90;;;;;;5055118;28;20045;-67
2022/04/28 04:55:43;;;;;;;8.07;5.60;;;9.40;99.90;;;;;;5054988;28;20423;-67
2022/04/28 04:58:09;;;;;;;7.05;5.05;;;9.10;99.90;;;;;;5055144;28;20112;-67
2022/04/28 05:00:35;;;;;;;10.15;5.57;;;8.90;99.90;;;;;;5054799;28;20045;-67
2022/04/28 05:03:01;;;;;;;6.57;5.30;;;8.80;99.90;;;;;;5054894;28;20040;-67
2022/04/28 05:05:26;;;;;;;8.73;5.25;;;8.90;99.90;;;;;;5054802;28;20538;-66
2022/04/28 05:07:52;;;;;;;8.43;5.38;;;8.90;99.90;;;;;;5063927;28;20060;-66
2022/04/28 05:10:18;;;;;;;10.35;5.55;;;8.90;99.90;;;;;;5074640;28;20420;-66
2022/04/28 05:12:45;;;;;;;7.63;5.20;;;9.00;99.90;;;;;;5074576;28;20036;-66
2022/04/28 05:15:11;;;;;;;7.88;5.97;;;9.10;99.90;;;;;;5074433;28;20037;-67
2022/04/28 05:17:38;;;;;;;7.05;4.97;;;9.10;99.90;;;;;;5074649;28;20419;-67
2022/04/28 05:20:07;;;;;;;7.05;5.53;;;9.10;99.90;;;;;;5073908;28;20568;-67
2022/04/28 05:22:34;;;;;;;9.80;5.13;;;9.00;99.90;;;;;;5074492;28;20037;-67
2022/04/28 05:25:00;;;;;;;7.93;5.55;;;8.80;99.90;;;;;;5073895;28;20062;-67
2022/04/28 05:27:26;;;;;;;6.45;5.22;;;8.80;99.90;;;;;;5074313;28;20049;-67
2022/04/28 05:29:52;;;;;;;7.40;5.18;;;8.70;99.90;;;;;;5071132;28;20044;-67
2022/04/28 05:32:18;;;;;;;8.32;5.80;;;8.90;99.90;;;;;;5073332;28;20572;-67
2022/04/28 05:34:44;;;;;;;8.68;5.60;;;9.00;99.90;;;;;;5073656;28;20040;-67
2022/04/28 05:37:12;;;;;;;7.60;5.78;;;9.30;99.90;;;;;;5072896;28;20507;-67
2022/04/28 05:39:40;;;;;;;8.43;6.25;;;9.60;99.90;;;;;;5073808;28;20500;-67
2022/04/28 05:42:07;;;;;;;8.38;6.13;;;9.90;99.90;;;;;;5073889;28;20121;-67
2022/04/28 05:47:19;;;;;;;6.68;5.50;;;10.50;99.90;;;;;;5073895;28;20064;-68
2022/04/28 05:49:45;;;;;;;7.20;5.55;;;10.40;99.90;;;;;;5073931;28;20453;-67
2022/04/28 05:52:11;;;;;;;9.35;5.47;;;10.40;99.90;;;;;;5073983;28;20377;-67
2022/04/28 05:54:36;;;;;;;9.63;5.88;;;10.50;99.90;;;;;;5073806;28;20047;-67
2022/04/28 05:57:03;;;;;;;9.50;5.80;;;11.00;99.90;;;;;;5073664;28;20060;-68
2022/04/28 05:59:29;;;;;;;10.15;5.45;;;11.20;99.90;;;;;;5073437;28;20046;-67
2022/04/28 06:01:54;;;;;;;6.35;5.25;;;11.50;99.90;;;;;;5073313;28;20040;-67
2022/04/28 06:04:20;;;;;;;6.65;5.00;;;11.90;99.90;;;;;;5073250;28;20136;-69
2022/04/28 06:06:46;;;;;;;14.05;5.28;;;12.00;99.90;;;;;;5073498;28;20111;-68
2022/04/28 06:09:12;;;;;;;6.25;4.93;;;12.30;99.90;;;;;;5073256;28;20028;-68
2022/04/28 06:11:37;;;;;;;10.27;5.68;;;12.40;99.90;;;;;;5073360;28;20043;-67
2022/04/28 06:14:03;;;;;;;7.57;5.43;;;12.30;99.90;;;;;;5073301;28;20093;-68
2022/04/28 06:16:29;;;;;;;10.07;5.57;;;12.40;99.90;;;;;;5073297;28;20036;-68
2022/04/28 06:18:55;;;;;;;6.25;4.93;;;12.60;99.90;;;;;;5073416;28;20044;-68
2022/04/28 06:21:20;;;;;;;6.95;5.93;;;12.90;99.90;;;;;;5073311;28;20143;-68
2022/04/28 06:23:46;;;;;;;5.72;4.88;;;12.90;99.90;;;;;;5072996;28;20094;-68
2022/04/28 06:26:12;;;;;;;6.07;4.78;;;12.90;99.90;;;;;;5073098;28;20059;-68
2022/04/28 06:28:37;;;;;;;6.28;5.00;;;12.90;99.90;;;;;;5073225;28;20051;-67
2022/04/28 06:31:04;;;;;;;6.78;4.32;;;;;;;;;;5073145;28;20032;-68
2022/04/28 06:33:29;;;;;;;6.95;5.07;;;13.10;99.90;;;;;;5072924;28;20044;-67
2022/04/28 06:35:56;;;;;;;6.72;4.53;;;13.10;99.90;;;;;;5072403;28;20039;-67
2022/04/28 06:38:22;;;;;;;6.68;4.63;;;13.10;99.90;;;;;;5073014;28;20442;-67
2022/04/28 06:40:47;;;;;;;8.48;4.68;;;13.20;99.90;;;;;;5073110;28;20087;-67
2022/04/28 06:43:13;;;;;;;8.30;4.95;;;13.30;99.90;;;;;;5072969;28;20446;-67
2022/04/28 06:46:11;;;;;;;4.80;4.10;;;13.60;99.90;;;;;;5072897;28;20060;-67
2022/04/28 06:48:24;;;;;;;4.95;3.88;;;13.70;99.90;;;;;;5072846;28;20045;-68
2022/04/28 06:50:50;;;;;;;6.82;5.20;;;13.60;99.90;;;;;;5072792;28;20070;-67
2022/04/28 06:53:16;;;;;;;11.48;6.10;;;13.70;99.90;;;;;;5073053;28;20142;-68
2022/04/28 06:55:42;;;;;;;5.10;4.18;;;13.70;99.90;;;;;;5072818;28;20044;-67
2022/04/28 06:58:08;;;;;;;6.22;4.70;;;13.70;99.90;;;;;;5072109;28;20413;-68
2022/04/28 07:00:33;;;;;;;6.03;4.55;;;14.10;99.90;;;;;;5072812;28;20415;-68
2022/04/28 07:02:59;;;;;;;4.88;4.13;;;14.30;99.90;;;;;;5072454;28;20037;-68
2022/04/28 07:05:25;;;;;;;5.82;4.53;;;14.30;99.90;;;;;;5072663;28;20056;-68
2022/04/28 07:07:51;;;;;;;6.20;4.72;;;14.30;99.90;;;;;;5072830;28;20041;-68
2022/04/28 07:10:17;;;;;;;8.23;5.15;;;14.50;99.90;;;;;;5072871;28;20406;-68
2022/04/28 07:12:43;;;;;;;8.20;4.63;;;14.70;99.90;;;;;;5072795;28;20051;-68
2022/04/28 07:15:09;;;;;;;7.72;4.97;;;14.70;99.90;;;;;;5072726;28;20032;-68
2022/04/28 07:17:35;;;;;;;5.88;4.68;;;14.80;99.90;;;;;;5072766;28;20075;-67
2022/04/28 07:20:01;;;;;;;9.88;6.50;;;15.00;99.90;;;;;;5072575;28;20029;-68
2022/04/28 07:22:27;;;;;;;7.07;5.10;;;15.00;99.90;;;;;;5072785;28;20047;-67
2022/04/28 07:24:53;;;;;;;8.65;5.40;;;15.30;99.90;;;;;;5072574;28;20085;-67
2022/04/28 07:27:19;;;;;;;11.80;6.03;;;15.40;99.90;;;;;;5072525;28;20052;-68
2022/04/28 07:29:44;;;;;;;7.38;5.07;;;15.20;99.90;;;;;;5072703;28;20041;-68
2022/04/28 07:32:10;;;;;;;8.20;5.28;;;15.30;99.90;;;;;;5072619;28;20049;-67
2022/04/28 07:34:36;;;;;;;9.25;5.25;;;15.70;99.90;;;;;;5072414;28;20119;-68
2022/04/28 07:37:03;;;;;;;7.90;5.43;;;15.50;99.90;;;;;;5057922;28;20037;-67
2022/04/28 07:39:28;;;;;;;8.52;5.95;;;15.50;99.90;;;;;;5052234;28;20045;-67
2022/04/28 07:41:54;;;;;;;7.22;5.20;;;15.60;99.90;;;;;;5052560;28;20041;-68
2022/04/28 07:44:20;;;;;;;8.82;5.90;;;15.80;99.90;;;;;;5051900;28;20037;-68
2022/04/28 07:46:47;;;;;;;8.13;5.70;;;;;;;;;;5053066;28;20390;-68
2022/04/28 07:49:13;;;;;;;8.40;4.95;;;16.10;99.90;;;;;;5056102;28;20120;-67
2022/04/28 07:51:38;;;;;;;7.25;5.25;;;16.10;99.90;;;;;;5055996;28;20111;-68
2022/04/28 07:54:04;;;;;;;9.52;5.68;;;16.30;99.90;;;;;;5056125;28;20072;-67
2022/04/28 07:56:30;;;;;;;9.43;5.22;;;16.00;99.90;;;;;;5056087;28;20052;-68
2022/04/28 07:58:56;;;;;;;7.57;5.00;;;16.10;99.90;;;;;;5056157;28;20037;-68
2022/04/28 08:01:22;;;;;;;7.03;4.70;;;16.40;99.90;;;;;;5055852;28;20024;-68
2022/04/28 08:03:49;;;;;;;6.95;5.28;;;16.80;99.90;;;;;;5055327;28;20045;-68
2022/04/28 08:06:15;;;;;;;7.63;5.50;;;17.10;99.90;;;;;;5053171;28;20045;-67
2022/04/28 08:08:41;;;;;;;8.80;5.35;;;17.00;99.90;;;;;;5054263;28;20048;-68
2022/04/28 08:11:08;;;;;;;8.23;5.40;;;17.00;99.90;;;;;;5054686;28;20032;-67
2022/04/28 08:13:35;;;;;;;7.13;5.75;;;17.40;99.90;;;;;;5055492;28;20047;-68
2022/04/28 08:16:01;;;;;;;8.52;6.20;;;17.60;99.90;;;;;;5055482;28;20036;-68
2022/04/28 08:18:30;;;;;;;7.53;5.07;;;17.70;99.90;;;;;;5055700;28;20051;-68
2022/04/28 08:20:56;;;;;;;6.00;4.55;;;17.70;99.90;;;;;;5055641;28;20071;-68
2022/04/28 08:23:21;;;;;;;5.70;5.10;;;17.30;99.90;;;;;;5055653;28;20449;-68
2022/04/28 08:25:47;;;;;;;8.02;5.55;;;17.70;99.90;;;;;;5055413;28;20140;-68
2022/04/28 08:28:14;;;;;;;10.50;5.28;;;18.30;99.90;;;;;;5055470;28;20052;-68
2022/04/28 08:30:39;;;;;;;12.20;6.05;;;18.30;99.90;;;;;;5055485;28;20037;-67
2022/04/28 08:33:05;;;;;;;8.85;6.40;;;18.00;99.90;;;;;;5055219;28;20099;-68
2022/04/28 08:35:31;;;;;;;13.38;6.35;;;17.90;99.90;;;;;;5055250;28;20043;-67
2022/04/28 08:37:58;;;;;;;8.00;5.63;;;17.90;99.90;;;;;;5055372;28;20140;-68
2022/04/28 08:40:24;;;;;;;11.05;5.68;;;17.90;99.90;;;;;;5055196;28;20032;-67
2022/04/28 08:42:50;;;;;;;8.38;5.10;;;18.00;99.90;;;;;;5055286;28;20037;-68
2022/04/28 08:45:26;;;;;;;8.70;5.43;;;17.90;99.90;;;;;;5054838;28;20461;-68
2022/04/28 08:47:53;;;;;;;7.20;5.32;;;18.30;99.90;;;;;;5057660;28;20037;-68
2022/04/28 08:50:21;;;;;;;5.22;4.45;;;18.20;99.90;;;;;;5060127;28;20123;-68
2022/04/28 08:52:48;;;;;;;7.53;5.53;;;18.40;99.90;;;;;;5070961;28;20070;-68
2022/04/28 08:55:16;;;;;;;6.97;5.45;;;18.50;99.90;;;;;;5072448;28;20037;-67
2022/04/28 08:57:42;;;;;;;5.70;4.80;;;18.50;99.90;;;;;;5074640;28;20102;-67
2022/04/28 09:00:09;;;;;;;9.38;6.40;;;18.10;99.90;;;;;;5074284;28;20434;-68
2022/04/28 09:02:34;;;;;;;17.67;6.05;;;18.20;99.90;;;;;;5074978;28;20056;-67
2022/04/28 09:05:07;;;;;;;9.93;5.45;;;18.50;99.90;;;;;;5074789;28;20082;-67
2022/04/28 09:07:41;;;;;;;7.88;4.72;;;18.80;99.90;;;;;;5074735;28;20093;-68
2022/04/28 09:10:25;;;;;;;6.47;4.85;;;18.90;99.90;;;;;;5074490;28;20041;-68
2022/04/28 09:14:08;;;;;;;8.18;4.47;;;18.80;99.90;;;;;;5074869;28;20036;-67
2022/04/28 09:15:46;;;;;;;7.60;4.97;;;19.30;99.90;;;;;;5074520;28;20044;-67
2022/04/28 09:18:12;;;;;;;6.50;4.35;;;19.60;99.90;;;;;;5074412;28;20044;-67
2022/04/28 09:20:37;;;;;;;13.85;4.50;;;19.20;99.90;;;;;;5074332;28;20083;-67
2022/04/28 09:23:03;;;;;;;8.65;4.22;;;19.60;99.10;;;;;;5074457;28;20044;-67
2022/04/28 09:25:31;;;;;;;8.60;5.00;;;19.70;99.90;;;;;;5074366;28;20102;-67
2022/04/28 09:27:59;;;;;;;5.75;4.20;;;19.70;99.30;;;;;;5074367;28;20400;-68
2022/04/28 09:30:33;;;;;;;7.97;4.32;;;19.60;97.50;;;;;;5073682;28;20032;-67
2022/04/28 09:33:11;;;;;;;4.88;3.60;;;19.50;98.90;;;;;;5073995;28;20137;-67
2022/04/28 09:35:48;;;;;;;6.50;4.20;;;19.00;98.00;;;;;;5073365;28;20565;-67
2022/04/28 09:38:14;;;;;;;9.32;3.97;;;19.20;98.30;;;;;;5061781;28;20083;-67
2022/04/28 09:43:27;;;;;;;7.95;4.72;;;19.50;98.00;;;;;;5054127;28;20527;-67
2022/04/28 09:45:56;;;;;;;6.30;4.53;;;19.30;99.40;;;;;;5063242;28;20048;-67
2022/04/28 09:48:30;;;;;;;4.43;4.03;;;19.40;98.10;;;;;;5067681;28;20036;-67
2022/04/28 09:51:22;;;;;;;5.55;3.90;;;20.00;97.50;;;;;;5071079;28;20036;-67
2022/04/28 09:53:49;;;;;;;5.78;3.60;;;20.10;98.00;;;;;;5073055;28;20036;-68
2022/04/28 09:56:18;;;;;;;3.58;3.28;;;20.30;97.60;;;;;;5065535;28;20902;-67
2022/04/28 09:58:45;;;;;;;6.25;4.38;;;20.00;95.80;;;;;;5070425;28;20049;-67
2022/04/28 10:01:11;;;;;;;6.18;4.20;;;20.00;96.50;;;;;;5062356;28;20043;-68
2022/04/28 10:03:40;;;;;;;5.68;3.78;;;20.10;97.80;;;;;;5057106;28;20041;-68
2022/04/28 10:06:06;;;;;;;4.63;3.20;;;20.00;94.70;;;;;;5058178;28;20044;-67
2022/04/28 10:08:36;;;;;;;4.82;3.05;;;20.00;94.70;;;;;;5070162;28;20493;-67
2022/04/28 10:11:06;;;;;;;8.13;3.85;;;19.90;94.60;;;;;;5060531;28;20037;-67
2022/04/28 10:13:32;;;;;;;7.03;3.58;;;20.20;95.40;;;;;;5061144;28;20052;-67
2022/04/28 10:16:06;;;;;;;6.53;3.80;;;20.00;95.90;;;;;;5058811;28;20052;-67
2022/04/28 10:18:37;;;;;;;5.45;3.20;;;20.30;96.70;;;;;;5060630;28;20127;-69
2022/04/28 10:21:05;;;;;;;8.48;4.07;;;20.40;93.40;;;;;;5061804;28;20036;-69
2022/04/28 10:35:01;;;;;;;6.50;3.22;;;20.90;95.40;;;;;;5060747;28;20506;-67
2022/04/28 10:37:31;;;;;;;4.25;2.88;;;20.90;94.30;;;;;;5061050;28;20037;-67
2022/04/28 10:39:58;;;;;;;5.70;3.60;;;20.90;95.10;;;;;;5060779;28;20209;-69
2022/04/28 10:42:26;;;;;;;6.18;3.30;;;21.30;95.60;;;;;;5064736;28;20491;-68
2022/04/28 10:44:55;;;;;;;4.70;3.60;;;21.20;94.70;;;;;;5061860;28;20049;-68
2022/04/28 10:47:29;;;;;;;3.92;3.22;;;21.00;94.20;;;;;;5063400;28;20036;-67
2022/04/28 10:49:56;;;;;;;6.10;3.83;;;;;;;;;;5059743;28;20116;-68
2022/04/28 10:52:23;;;;;;;5.85;3.75;;;21.40;96.00;;;;;;5064209;28;20055;-67
2022/04/28 10:55:15;;;;;;;4.45;3.53;;;21.50;94.80;;;;;;5067460;28;20040;-67
2022/04/28 10:57:41;;;;;;;7.75;3.85;;;21.20;95.50;;;;;;5059807;28;20040;-68
2022/04/28 11:00:07;;;;;;;6.70;4.20;;;21.30;95.10;;;;;;5070514;28;20048;-69
2022/04/28 11:02:36;;;;;;;7.72;4.10;;;21.10;99.90;;;;;;5064394;28;20055;-68
2022/04/28 11:05:23;;;;;;;16.25;4.47;;;21.10;98.80;;;;;;5063097;28;20071;-69
2022/04/28 11:07:49;;;;;;;10.80;4.88;;;;;;;;;;5065121;28;20412;-68
2022/04/28 11:10:15;;;;;;;6.45;3.95;;;20.50;95.10;;;;;;5069802;28;20047;-68
2022/04/28 11:12:41;;;;;;;6.30;4.38;;;20.40;95.20;;;;;;5069279;28;20377;-70
2022/04/28 11:15:14;;;;;;;6.43;4.25;;;20.60;95.80;;;;;;5057246;28;20045;-68
2022/04/28 11:17:44;;;;;;;5.22;3.42;;;21.00;94.40;;;;;;5068839;28;20115;-69
2022/04/28 11:20:15;;;;;;;6.10;3.42;;;20.70;94.20;;;;;;5054047;28;20046;-67
2022/04/28 11:22:51;;;;;;;4.55;3.70;;;20.90;94.60;;;;;;5052056;28;20499;-72
2022/04/28 11:25:19;;;;;;;7.13;4.32;;;20.50;93.60;;;;;;5073372;28;20381;-68
2022/04/28 11:27:47;;;;;;;6.70;4.22;;;20.50;93.50;;;;;;5056455;28;20134;-68
2022/04/28 11:30:15;;;;;;;5.05;3.88;;;20.30;92.40;;;;;;5074103;28;20056;-67
2022/04/28 11:32:46;;;;;;;6.13;4.18;;;;;;;;;;5074712;28;20040;-68
2022/04/28 11:35:11;;;;;;;5.55;4.25;;;20.90;99.90;;;;;;5061540;28;20058;-68
2022/04/28 11:37:38;;;;;;;8.35;3.92;;;20.60;94.00;;;;;;5061478;28;20096;-68
2022/04/28 11:40:06;;;;;;;5.40;3.85;;;20.80;94.30;;;;;;5070090;28;20119;-69
2022/04/28 11:42:36;;;;;;;6.30;3.67;;;20.80;93.60;;;;;;5063096;28;20094;-67
2022/04/28 11:45:02;;;;;;;6.22;3.65;;;21.10;94.50;;;;;;5056646;28;20055;-70
2022/04/28 11:47:30;;;;;;;3.85;3.30;;;21.30;93.50;;;;;;5055173;28;20074;-70
2022/04/28 11:49:58;;;;;;;10.90;3.70;;;21.10;93.60;;;;;;5054061;28;20047;-69
2022/04/28 11:52:29;;;;;;;3.80;3.30;;;20.80;92.10;;;;;;5054088;28;20037;-70
2022/04/28 11:55:03;;;;;;;4.60;3.30;;;20.60;91.40;;;;;;5036028;28;20052;-69
2022/04/28 11:57:31;;;;;;;4.82;2.78;;;20.90;91.80;;;;;;5054170;28;20041;-68
2022/04/28 11:59:59;;;;;;;5.82;3.45;;;21.00;93.30;;;;;;5036283;28;20040;-68
2022/04/28 12:02:34;;;;;;;5.15;3.42;;;21.20;92.30;;;;;;5054070;28;20120;-70
2022/04/28 12:05:22;;;;;;;5.15;2.70;;;21.30;92.10;;;;;;5053411;28;20044;-68
2022/04/28 12:07:53;;;;;;;5.22;2.90;;;21.00;91.40;;;;;;5066101;28;20052;-68
2022/04/28 12:16:08;;;;;;;5.40;3.28;;;20.40;88.90;;;;;;5056124;28;20043;-67
2022/04/28 12:21:25;;;;;;;6.75;2.97;;;20.60;91.70;;;;;;5059231;28;20116;-68
2022/04/28 12:23:56;;;;;;;6.53;2.80;;;20.60;90.80;;;;;;5064340;28;20062;-67
2022/04/28 12:26:29;;;;;;;6.47;3.10;;;20.70;92.20;;;;;;5066145;28;20091;-68
2022/04/28 12:29:06;;;;;;;7.65;3.70;;;20.60;90.60;;;;;;5061922;28;20040;-68
2022/04/28 12:31:34;;;;;;;4.18;2.78;;;20.60;90.50;;;;;;5054121;28;20044;-69
2022/04/28 12:34:15;;;;;;;5.82;3.10;;;20.60;92.30;;;;;;5051881;28;20076;-69
2022/04/28 12:36:48;;;;;;;6.15;3.13;;;20.50;90.80;;;;;;5052781;28;20115;-67
2022/04/28 12:39:18;;;;;;;4.55;3.25;;;20.60;91.50;;;;;;5053383;28;20043;-68
2022/04/28 12:41:46;;;;;;;4.40;2.83;;;20.40;91.10;;;;;;5036172;28;20040;-68
2022/04/28 12:44:12;;;;;;;3.70;2.88;;;;;;;;;;5058907;28;20373;-68
2022/04/28 12:46:44;;;;;;;4.65;2.95;;;20.00;90.20;;;;;;5073033;28;20053;-67
2022/04/28 12:49:12;;;;;;;6.65;3.30;;;19.90;89.50;;;;;;5056626;28;20132;-67
2022/04/28 12:51:54;;;;;;;5.10;3.53;;;20.30;90.70;;;;;;5071387;28;20048;-69
2022/04/28 12:54:30;;;;;;;4.85;3.10;;;20.20;89.80;;;;;;5071485;28;20086;-68
2022/04/28 12:56:59;;;;;;;5.22;3.05;;;20.30;92.50;;;;;;5072181;28;20504;-70
2022/04/28 12:59:36;;;;;;;4.45;3.08;;;20.60;92.10;;;;;;5071656;28;20032;-69
2022/04/28 13:02:06;;;;;;;8.27;3.08;;;20.60;92.20;;;;;;5072880;28;20404;-70
2022/04/28 13:04:37;;;;;;;4.82;3.25;;;20.20;91.10;;;;;;5072161;28;20063;-70
2022/04/28 13:07:08;;;;;;;9.20;3.20;;;20.10;91.30;;;;;;5071214;28;20049;-69
2022/04/28 13:09:34;;;;;;;;;;;20.20;90.40;;;;;;5070941;28;20119;-69
2022/04/28 13:12:01;;;;;;;4.78;2.88;;;20.60;91.00;;;;;;5057148;28;19954;-68
2022/04/28 13:14:27;;;;;;;6.45;2.97;;;20.80;92.10;;;;;;5066891;28;20036;-69
2022/04/28 13:16:53;;;;;;;6.85;3.50;;;20.80;90.20;;;;;;5055175;28;20124;-70
2022/04/28 13:19:22;;;;;;;4.13;3.15;;;20.50;90.70;;;;;;5058705;28;20545;-69
2022/04/28 13:21:49;;;;;;;6.70;2.60;;;21.00;91.60;;;;;;5065317;28;20420;-69
2022/04/28 13:24:15;;;;;;;4.55;2.13;;;20.90;90.20;;;;;;5036122;28;20049;-69
2022/04/28 13:26:42;;;;;;;2.63;2.33;;;20.60;90.30;;;;;;5066022;28;20076;-68
2022/04/28 13:29:10;;;;;;;4.78;3.00;;;20.50;91.50;;;;;;5061298;28;20071;-69
2022/04/28 13:31:40;;;;;;;5.65;2.80;;;20.30;89.70;;;;;;5062330;28;20043;-70
2022/04/28 13:34:07;;;;;;;5.25;3.25;;;20.20;90.20;;;;;;5052061;28;20083;-69